sensor_id;sensor_type;location;lat;lon;timestamp;P1;durP1;ratioP1;P2;durP2;ratioP2
64894;SDS011;51588;53.702;10.208;2023-02-28T00:00:13;3.50;;;2.80;;
64894;SDS011;51588;53.702;10.208;2023-02-28T00:02:40;3.63;;;2.87;;
64894;SDS011;51588;53.702;10.208;2023-02-28T00:05:07;5.40;;;2.93;;
64894;SDS011;51588;53.702;10.208;2023-02-28T00:07:34;3.33;;;2.90;;
64894;SDS011;51588;53.702;10.208;2023-02-28T00:10:01;3.20;;;2.57;;
64894;SDS011;51588;53.702;10.208;2023-02-28T00:12:29;4.43;;;3.27;;
64894;SDS011;51588;53.702;10.208;2023-02-28T00:14:55;3.40;;;2.40;;
64894;SDS011;51588;53.702;10.208;2023-02-28T00:17:22;3.30;;;3.00;;
64894;SDS011;51588;53.702;10.208;2023-02-28T00:19:48;3.17;;;2.43;;
64894;SDS011;51588;53.702;10.208;2023-02-28T00:22:15;3.27;;;2.60;;
64894;SDS011;51588;53.702;10.208;2023-02-28T00:24:42;3.10;;;2.70;;
64894;SDS011;51588;53.702;10.208;2023-02-28T00:27:10;3.27;;;2.73;;
64894;SDS011;51588;53.702;10.208;2023-02-28T00:29:38;3.77;;;3.00;;
64894;SDS011;51588;53.702;10.208;2023-02-28T00:32:04;3.03;;;2.70;;
64894;SDS011;51588;53.702;10.208;2023-02-28T00:34:31;3.07;;;2.50;;
64894;SDS011;51588;53.702;10.208;2023-02-28T00:37:03;3.50;;;2.53;;
64894;SDS011;51588;53.702;10.208;2023-02-28T00:39:33;2.57;;;2.33;;
64894;SDS011;51588;53.702;10.208;2023-02-28T00:41:59;3.17;;;2.67;;
64894;SDS011;51588;53.702;10.208;2023-02-28T00:44:26;5.23;;;3.20;;
64894;SDS011;51588;53.702;10.208;2023-02-28T00:46:54;5.23;;;2.87;;
64894;SDS011;51588;53.702;10.208;2023-02-28T00:49:21;3.17;;;2.57;;
64894;SDS011;51588;53.702;10.208;2023-02-28T00:51:48;3.43;;;2.50;;
64894;SDS011;51588;53.702;10.208;2023-02-28T00:54:14;2.40;;;2.20;;
64894;SDS011;51588;53.702;10.208;2023-02-28T00:56:40;2.70;;;2.50;;
64894;SDS011;51588;53.702;10.208;2023-02-28T00:59:07;3.37;;;3.03;;
64894;SDS011;51588;53.702;10.208;2023-02-28T01:01:33;3.40;;;2.77;;
64894;SDS011;51588;53.702;10.208;2023-02-28T01:04:01;4.23;;;2.90;;
64894;SDS011;51588;53.702;10.208;2023-02-28T01:06:30;3.07;;;2.67;;
64894;SDS011;51588;53.702;10.208;2023-02-28T01:08:57;3.50;;;2.53;;
64894;SDS011;51588;53.702;10.208;2023-02-28T01:11:24;4.90;;;2.50;;
64894;SDS011;51588;53.702;10.208;2023-02-28T01:13:50;3.60;;;2.80;;
64894;SDS011;51588;53.702;10.208;2023-02-28T01:16:17;5.80;;;2.80;;
64894;SDS011;51588;53.702;10.208;2023-02-28T01:18:44;3.87;;;2.87;;
64894;SDS011;51588;53.702;10.208;2023-02-28T01:21:12;3.20;;;2.50;;
64894;SDS011;51588;53.702;10.208;2023-02-28T01:23:38;3.47;;;2.40;;
64894;SDS011;51588;53.702;10.208;2023-02-28T01:26:05;3.83;;;2.80;;
64894;SDS011;51588;53.702;10.208;2023-02-28T01:28:32;3.50;;;2.70;;
64894;SDS011;51588;53.702;10.208;2023-02-28T01:31:01;3.30;;;2.43;;
64894;SDS011;51588;53.702;10.208;2023-02-28T01:33:27;4.70;;;2.70;;
64894;SDS011;51588;53.702;10.208;2023-02-28T01:35:57;3.00;;;2.50;;
64894;SDS011;51588;53.702;10.208;2023-02-28T01:38:25;3.93;;;2.73;;
64894;SDS011;51588;53.702;10.208;2023-02-28T01:40:52;3.30;;;2.60;;
64894;SDS011;51588;53.702;10.208;2023-02-28T01:43:22;3.10;;;2.70;;
64894;SDS011;51588;53.702;10.208;2023-02-28T01:45:49;4.70;;;3.00;;
64894;SDS011;51588;53.702;10.208;2023-02-28T01:48:16;5.70;;;3.47;;
64894;SDS011;51588;53.702;10.208;2023-02-28T01:50:43;3.63;;;2.87;;
64894;SDS011;51588;53.702;10.208;2023-02-28T01:53:12;4.43;;;2.90;;
64894;SDS011;51588;53.702;10.208;2023-02-28T01:55:41;2.83;;;2.43;;
64894;SDS011;51588;53.702;10.208;2023-02-28T01:58:09;3.07;;;2.77;;
64894;SDS011;51588;53.702;10.208;2023-02-28T02:00:35;3.03;;;2.60;;
64894;SDS011;51588;53.702;10.208;2023-02-28T02:03:04;2.97;;;2.67;;
64894;SDS011;51588;53.702;10.208;2023-02-28T02:05:32;3.60;;;2.73;;
64894;SDS011;51588;53.702;10.208;2023-02-28T02:08:01;3.50;;;2.60;;
64894;SDS011;51588;53.702;10.208;2023-02-28T02:10:29;3.87;;;2.73;;
64894;SDS011;51588;53.702;10.208;2023-02-28T02:15:41;2.60;;;2.40;;
64894;SDS011;51588;53.702;10.208;2023-02-28T02:18:12;2.43;;;2.20;;
64894;SDS011;51588;53.702;10.208;2023-02-28T02:21:10;2.90;;;2.57;;
64894;SDS011;51588;53.702;10.208;2023-02-28T02:23:54;4.37;;;3.47;;
64894;SDS011;51588;53.702;10.208;2023-02-28T02:29:15;2.87;;;2.47;;
64894;SDS011;51588;53.702;10.208;2023-02-28T02:31:52;3.53;;;2.60;;
64894;SDS011;51588;53.702;10.208;2023-02-28T02:34:27;3.07;;;2.57;;
64894;SDS011;51588;53.702;10.208;2023-02-28T02:36:57;2.30;;;2.00;;
64894;SDS011;51588;53.702;10.208;2023-02-28T02:39:27;2.90;;;2.60;;
64894;SDS011;51588;53.702;10.208;2023-02-28T02:41:56;3.20;;;2.70;;
64894;SDS011;51588;53.702;10.208;2023-02-28T02:44:26;3.63;;;2.70;;
64894;SDS011;51588;53.702;10.208;2023-02-28T02:46:53;3.60;;;2.67;;
64894;SDS011;51588;53.702;10.208;2023-02-28T02:49:22;3.33;;;3.03;;
64894;SDS011;51588;53.702;10.208;2023-02-28T02:51:51;3.90;;;2.70;;
64894;SDS011;51588;53.702;10.208;2023-02-28T02:54:19;2.87;;;2.47;;
64894;SDS011;51588;53.702;10.208;2023-02-28T02:56:47;2.73;;;2.30;;
64894;SDS011;51588;53.702;10.208;2023-02-28T02:59:16;3.27;;;2.30;;
64894;SDS011;51588;53.702;10.208;2023-02-28T03:01:46;3.13;;;2.43;;
64894;SDS011;51588;53.702;10.208;2023-02-28T03:04:16;2.60;;;2.40;;
64894;SDS011;51588;53.702;10.208;2023-02-28T03:06:44;3.03;;;2.60;;
64894;SDS011;51588;53.702;10.208;2023-02-28T03:09:12;3.33;;;2.40;;
64894;SDS011;51588;53.702;10.208;2023-02-28T03:11:38;2.70;;;2.30;;
64894;SDS011;51588;53.702;10.208;2023-02-28T03:14:11;2.87;;;2.53;;
64894;SDS011;51588;53.702;10.208;2023-02-28T03:16:47;2.40;;;2.20;;
64894;SDS011;51588;53.702;10.208;2023-02-28T03:19:32;3.53;;;2.40;;
64894;SDS011;51588;53.702;10.208;2023-02-28T03:22:07;2.50;;;2.30;;
64894;SDS011;51588;53.702;10.208;2023-02-28T03:24:38;3.77;;;2.60;;
64894;SDS011;51588;53.702;10.208;2023-02-28T03:27:06;2.90;;;2.30;;
64894;SDS011;51588;53.702;10.208;2023-02-28T03:29:34;3.00;;;2.57;;
64894;SDS011;51588;53.702;10.208;2023-02-28T03:32:02;3.80;;;2.33;;
64894;SDS011;51588;53.702;10.208;2023-02-28T03:34:34;3.57;;;2.27;;
64894;SDS011;51588;53.702;10.208;2023-02-28T03:37:03;2.60;;;2.40;;
64894;SDS011;51588;53.702;10.208;2023-02-28T03:39:34;2.80;;;2.60;;
64894;SDS011;51588;53.702;10.208;2023-02-28T03:42:04;2.60;;;2.30;;
64894;SDS011;51588;53.702;10.208;2023-02-28T03:44:32;2.70;;;2.50;;
64894;SDS011;51588;53.702;10.208;2023-02-28T03:47:02;2.57;;;2.33;;
64894;SDS011;51588;53.702;10.208;2023-02-28T03:49:30;2.60;;;2.30;;
64894;SDS011;51588;53.702;10.208;2023-02-28T03:51:59;2.40;;;2.20;;
64894;SDS011;51588;53.702;10.208;2023-02-28T03:54:30;2.83;;;2.60;;
64894;SDS011;51588;53.702;10.208;2023-02-28T03:57:04;2.90;;;2.60;;
64894;SDS011;51588;53.702;10.208;2023-02-28T03:59:32;3.87;;;2.53;;
64894;SDS011;51588;53.702;10.208;2023-02-28T04:02:00;2.30;;;2.10;;
64894;SDS011;51588;53.702;10.208;2023-02-28T04:04:27;2.30;;;2.10;;
64894;SDS011;51588;53.702;10.208;2023-02-28T04:07:03;2.37;;;2.17;;
64894;SDS011;51588;53.702;10.208;2023-02-28T04:09:29;2.80;;;2.50;;
64894;SDS011;51588;53.702;10.208;2023-02-28T04:11:56;2.80;;;2.23;;
64894;SDS011;51588;53.702;10.208;2023-02-28T04:14:24;2.40;;;2.20;;
64894;SDS011;51588;53.702;10.208;2023-02-28T04:16:50;2.40;;;2.20;;
64894;SDS011;51588;53.702;10.208;2023-02-28T04:19:17;2.73;;;2.00;;
64894;SDS011;51588;53.702;10.208;2023-02-28T04:21:47;3.30;;;2.33;;
64894;SDS011;51588;53.702;10.208;2023-02-28T04:24:15;2.30;;;2.10;;
64894;SDS011;51588;53.702;10.208;2023-02-28T04:26:44;2.37;;;2.10;;
64894;SDS011;51588;53.702;10.208;2023-02-28T04:29:12;2.57;;;2.20;;
64894;SDS011;51588;53.702;10.208;2023-02-28T04:31:40;2.60;;;2.00;;
64894;SDS011;51588;53.702;10.208;2023-02-28T04:34:06;2.47;;;2.27;;
64894;SDS011;51588;53.702;10.208;2023-02-28T04:36:33;2.87;;;2.17;;
64894;SDS011;51588;53.702;10.208;2023-02-28T04:38:59;2.70;;;2.40;;
64894;SDS011;51588;53.702;10.208;2023-02-28T04:41:26;2.90;;;2.27;;
64894;SDS011;51588;53.702;10.208;2023-02-28T04:43:52;2.30;;;2.00;;
64894;SDS011;51588;53.702;10.208;2023-02-28T04:46:19;2.43;;;2.20;;
64894;SDS011;51588;53.702;10.208;2023-02-28T04:48:50;2.60;;;2.10;;
64894;SDS011;51588;53.702;10.208;2023-02-28T04:51:17;3.47;;;2.50;;
64894;SDS011;51588;53.702;10.208;2023-02-28T04:53:44;2.93;;;2.27;;
64894;SDS011;51588;53.702;10.208;2023-02-28T04:56:11;2.80;;;2.50;;
64894;SDS011;51588;53.702;10.208;2023-02-28T04:58:37;2.63;;;2.37;;
64894;SDS011;51588;53.702;10.208;2023-02-28T05:01:05;2.50;;;2.20;;
64894;SDS011;51588;53.702;10.208;2023-02-28T05:03:40;3.30;;;2.60;;
64894;SDS011;51588;53.702;10.208;2023-02-28T05:06:19;2.40;;;2.17;;
64894;SDS011;51588;53.702;10.208;2023-02-28T05:08:46;2.60;;;1.83;;
64894;SDS011;51588;53.702;10.208;2023-02-28T05:11:22;3.07;;;2.40;;
64894;SDS011;51588;53.702;10.208;2023-02-28T05:13:49;3.50;;;2.30;;
64894;SDS011;51588;53.702;10.208;2023-02-28T05:16:16;2.70;;;2.10;;
64894;SDS011;51588;53.702;10.208;2023-02-28T05:18:43;2.47;;;2.10;;
64894;SDS011;51588;53.702;10.208;2023-02-28T05:21:28;2.60;;;2.40;;
64894;SDS011;51588;53.702;10.208;2023-02-28T05:23:56;2.17;;;1.97;;
64894;SDS011;51588;53.702;10.208;2023-02-28T05:26:23;2.70;;;2.33;;
64894;SDS011;51588;53.702;10.208;2023-02-28T05:28:50;2.07;;;1.87;;
64894;SDS011;51588;53.702;10.208;2023-02-28T05:31:16;2.10;;;1.83;;
64894;SDS011;51588;53.702;10.208;2023-02-28T05:33:42;2.40;;;2.20;;
64894;SDS011;51588;53.702;10.208;2023-02-28T05:36:09;2.73;;;2.30;;
64894;SDS011;51588;53.702;10.208;2023-02-28T05:38:37;2.60;;;2.20;;
64894;SDS011;51588;53.702;10.208;2023-02-28T05:41:06;2.87;;;2.10;;
64894;SDS011;51588;53.702;10.208;2023-02-28T05:43:33;2.43;;;2.13;;
64894;SDS011;51588;53.702;10.208;2023-02-28T05:46:03;2.40;;;1.93;;
64894;SDS011;51588;53.702;10.208;2023-02-28T05:48:30;2.27;;;2.07;;
64894;SDS011;51588;53.702;10.208;2023-02-28T05:50:57;3.07;;;2.00;;
64894;SDS011;51588;53.702;10.208;2023-02-28T05:53:26;1.80;;;1.70;;
64894;SDS011;51588;53.702;10.208;2023-02-28T05:56:02;3.10;;;2.40;;
64894;SDS011;51588;53.702;10.208;2023-02-28T05:58:31;3.10;;;2.30;;
64894;SDS011;51588;53.702;10.208;2023-02-28T06:01:00;1.90;;;1.70;;
64894;SDS011;51588;53.702;10.208;2023-02-28T06:03:33;2.83;;;2.53;;
64894;SDS011;51588;53.702;10.208;2023-02-28T06:05:59;2.13;;;1.93;;
64894;SDS011;51588;53.702;10.208;2023-02-28T06:08:26;2.27;;;2.07;;
64894;SDS011;51588;53.702;10.208;2023-02-28T06:10:56;2.90;;;1.83;;
64894;SDS011;51588;53.702;10.208;2023-02-28T06:13:25;2.37;;;2.07;;
64894;SDS011;51588;53.702;10.208;2023-02-28T06:16:02;3.70;;;2.53;;
64894;SDS011;51588;53.702;10.208;2023-02-28T06:18:28;2.00;;;1.80;;
64894;SDS011;51588;53.702;10.208;2023-02-28T06:21:00;2.87;;;2.00;;
64894;SDS011;51588;53.702;10.208;2023-02-28T06:23:27;2.73;;;1.77;;
64894;SDS011;51588;53.702;10.208;2023-02-28T06:26:01;2.83;;;2.30;;
64894;SDS011;51588;53.702;10.208;2023-02-28T06:28:33;2.03;;;1.83;;
64894;SDS011;51588;53.702;10.208;2023-02-28T06:30:59;4.13;;;2.43;;
64894;SDS011;51588;53.702;10.208;2023-02-28T06:33:29;2.90;;;2.20;;
64894;SDS011;51588;53.702;10.208;2023-02-28T06:35:55;2.60;;;2.00;;
64894;SDS011;51588;53.702;10.208;2023-02-28T06:38:21;2.40;;;2.17;;
64894;SDS011;51588;53.702;10.208;2023-02-28T06:40:52;8.93;;;2.70;;
64894;SDS011;51588;53.702;10.208;2023-02-28T06:43:20;31.00;;;6.33;;
64894;SDS011;51588;53.702;10.208;2023-02-28T06:45:49;20.47;;;5.50;;
64894;SDS011;51588;53.702;10.208;2023-02-28T06:48:16;25.33;;;6.20;;
64894;SDS011;51588;53.702;10.208;2023-02-28T06:50:43;19.90;;;5.50;;
64894;SDS011;51588;53.702;10.208;2023-02-28T06:53:10;13.30;;;4.80;;
64894;SDS011;51588;53.702;10.208;2023-02-28T06:55:37;9.80;;;4.60;;
64894;SDS011;51588;53.702;10.208;2023-02-28T06:58:03;8.97;;;4.80;;
64894;SDS011;51588;53.702;10.208;2023-02-28T07:00:41;11.50;;;4.73;;
64894;SDS011;51588;53.702;10.208;2023-02-28T07:03:08;9.93;;;4.50;;
64894;SDS011;51588;53.702;10.208;2023-02-28T07:05:35;14.23;;;4.17;;
64894;SDS011;51588;53.702;10.208;2023-02-28T07:08:02;10.47;;;3.70;;
64894;SDS011;51588;53.702;10.208;2023-02-28T07:10:29;10.50;;;4.03;;
64894;SDS011;51588;53.702;10.208;2023-02-28T07:12:55;9.73;;;3.67;;
64894;SDS011;51588;53.702;10.208;2023-02-28T07:15:22;8.33;;;4.00;;
64894;SDS011;51588;53.702;10.208;2023-02-28T07:17:50;10.10;;;3.60;;
64894;SDS011;51588;53.702;10.208;2023-02-28T07:20:16;9.77;;;3.47;;
64894;SDS011;51588;53.702;10.208;2023-02-28T07:22:43;6.93;;;3.80;;
64894;SDS011;51588;53.702;10.208;2023-02-28T07:25:09;7.07;;;3.70;;
64894;SDS011;51588;53.702;10.208;2023-02-28T07:27:36;10.83;;;3.73;;
64894;SDS011;51588;53.702;10.208;2023-02-28T07:30:02;9.93;;;3.23;;
64894;SDS011;51588;53.702;10.208;2023-02-28T07:32:40;6.83;;;3.53;;
64894;SDS011;51588;53.702;10.208;2023-02-28T07:35:08;6.00;;;2.80;;
64894;SDS011;51588;53.702;10.208;2023-02-28T07:37:34;5.93;;;3.03;;
64894;SDS011;51588;53.702;10.208;2023-02-28T07:40:02;5.93;;;2.97;;
64894;SDS011;51588;53.702;10.208;2023-02-28T07:42:31;7.57;;;3.00;;
64894;SDS011;51588;53.702;10.208;2023-02-28T07:44:57;5.33;;;3.03;;
64894;SDS011;51588;53.702;10.208;2023-02-28T07:47:24;5.70;;;3.20;;
64894;SDS011;51588;53.702;10.208;2023-02-28T07:49:53;7.30;;;3.13;;
64894;SDS011;51588;53.702;10.208;2023-02-28T07:52:21;15.83;;;3.97;;
64894;SDS011;51588;53.702;10.208;2023-02-28T07:54:48;17.00;;;4.13;;
64894;SDS011;51588;53.702;10.208;2023-02-28T07:57:15;22.90;;;5.03;;
64894;SDS011;51588;53.702;10.208;2023-02-28T07:59:43;12.43;;;4.93;;
64894;SDS011;51588;53.702;10.208;2023-02-28T08:02:10;17.07;;;4.40;;
64894;SDS011;51588;53.702;10.208;2023-02-28T08:04:38;14.33;;;3.47;;
64894;SDS011;51588;53.702;10.208;2023-02-28T08:07:04;8.37;;;3.67;;
64894;SDS011;51588;53.702;10.208;2023-02-28T08:09:32;9.30;;;3.73;;
64894;SDS011;51588;53.702;10.208;2023-02-28T08:12:02;10.90;;;3.53;;
64894;SDS011;51588;53.702;10.208;2023-02-28T08:14:28;10.73;;;3.50;;
64894;SDS011;51588;53.702;10.208;2023-02-28T08:16:58;8.80;;;3.30;;
64894;SDS011;51588;53.702;10.208;2023-02-28T08:19:27;10.57;;;4.30;;
64894;SDS011;51588;53.702;10.208;2023-02-28T08:21:54;12.87;;;3.40;;
64894;SDS011;51588;53.702;10.208;2023-02-28T08:24:21;6.10;;;3.10;;
64894;SDS011;51588;53.702;10.208;2023-02-28T08:26:48;9.33;;;3.50;;
64894;SDS011;51588;53.702;10.208;2023-02-28T08:29:15;6.63;;;2.70;;
64894;SDS011;51588;53.702;10.208;2023-02-28T08:31:42;6.67;;;3.43;;
64894;SDS011;51588;53.702;10.208;2023-02-28T08:34:09;10.97;;;3.07;;
64894;SDS011;51588;53.702;10.208;2023-02-28T08:36:37;7.60;;;3.00;;
64894;SDS011;51588;53.702;10.208;2023-02-28T08:39:03;6.90;;;2.97;;
64894;SDS011;51588;53.702;10.208;2023-02-28T08:41:30;8.17;;;2.93;;
64894;SDS011;51588;53.702;10.208;2023-02-28T08:43:58;8.87;;;2.87;;
64894;SDS011;51588;53.702;10.208;2023-02-28T08:46:25;6.10;;;3.20;;
64894;SDS011;51588;53.702;10.208;2023-02-28T08:48:51;6.67;;;2.90;;
64894;SDS011;51588;53.702;10.208;2023-02-28T08:51:18;11.53;;;2.47;;
64894;SDS011;51588;53.702;10.208;2023-02-28T08:53:51;3.63;;;2.47;;
64894;SDS011;51588;53.702;10.208;2023-02-28T08:56:17;5.73;;;2.90;;
64894;SDS011;51588;53.702;10.208;2023-02-28T08:58:47;4.63;;;2.60;;
64894;SDS011;51588;53.702;10.208;2023-02-28T09:01:18;5.67;;;2.43;;
64894;SDS011;51588;53.702;10.208;2023-02-28T09:03:45;5.00;;;2.60;;
64894;SDS011;51588;53.702;10.208;2023-02-28T09:06:15;7.00;;;2.80;;
64894;SDS011;51588;53.702;10.208;2023-02-28T09:08:48;6.57;;;3.30;;
64894;SDS011;51588;53.702;10.208;2023-02-28T09:11:14;3.50;;;2.43;;
64894;SDS011;51588;53.702;10.208;2023-02-28T09:13:41;7.93;;;2.70;;
64894;SDS011;51588;53.702;10.208;2023-02-28T09:16:08;4.40;;;2.80;;
64894;SDS011;51588;53.702;10.208;2023-02-28T09:18:37;4.70;;;2.20;;
64894;SDS011;51588;53.702;10.208;2023-02-28T09:21:04;4.73;;;2.40;;
64894;SDS011;51588;53.702;10.208;2023-02-28T09:23:30;3.30;;;2.13;;
64894;SDS011;51588;53.702;10.208;2023-02-28T09:26:00;4.20;;;2.60;;
64894;SDS011;51588;53.702;10.208;2023-02-28T09:28:26;5.57;;;2.70;;
64894;SDS011;51588;53.702;10.208;2023-02-28T09:30:53;3.63;;;2.63;;
64894;SDS011;51588;53.702;10.208;2023-02-28T09:33:20;3.60;;;2.90;;
64894;SDS011;51588;53.702;10.208;2023-02-28T09:35:56;3.20;;;2.90;;
64894;SDS011;51588;53.702;10.208;2023-02-28T09:38:26;4.00;;;2.40;;
64894;SDS011;51588;53.702;10.208;2023-02-28T09:40:53;5.17;;;3.00;;
64894;SDS011;51588;53.702;10.208;2023-02-28T09:43:21;4.20;;;2.63;;
64894;SDS011;51588;53.702;10.208;2023-02-28T09:45:48;2.83;;;2.40;;
64894;SDS011;51588;53.702;10.208;2023-02-28T09:48:17;3.20;;;2.43;;
64894;SDS011;51588;53.702;10.208;2023-02-28T09:50:45;7.40;;;2.67;;
64894;SDS011;51588;53.702;10.208;2023-02-28T09:53:15;4.13;;;2.83;;
64894;SDS011;51588;53.702;10.208;2023-02-28T09:55:45;4.50;;;2.27;;
64894;SDS011;51588;53.702;10.208;2023-02-28T09:58:15;3.97;;;2.80;;
64894;SDS011;51588;53.702;10.208;2023-02-28T10:00:43;5.57;;;2.60;;
64894;SDS011;51588;53.702;10.208;2023-02-28T10:03:24;3.93;;;2.30;;
64894;SDS011;51588;53.702;10.208;2023-02-28T10:05:59;6.77;;;2.40;;
64894;SDS011;51588;53.702;10.208;2023-02-28T10:08:33;3.03;;;2.00;;
64894;SDS011;51588;53.702;10.208;2023-02-28T10:11:07;3.83;;;1.97;;
64894;SDS011;51588;53.702;10.208;2023-02-28T10:13:35;2.90;;;2.13;;
64894;SDS011;51588;53.702;10.208;2023-02-28T10:16:03;4.00;;;2.20;;
64894;SDS011;51588;53.702;10.208;2023-02-28T10:18:34;6.60;;;2.20;;
64894;SDS011;51588;53.702;10.208;2023-02-28T10:21:04;4.60;;;2.13;;
64894;SDS011;51588;53.702;10.208;2023-02-28T10:23:34;3.53;;;1.90;;
64894;SDS011;51588;53.702;10.208;2023-02-28T10:26:10;3.30;;;1.93;;
64894;SDS011;51588;53.702;10.208;2023-02-28T10:28:38;4.03;;;2.07;;
64894;SDS011;51588;53.702;10.208;2023-02-28T10:31:05;3.67;;;1.80;;
64894;SDS011;51588;53.702;10.208;2023-02-28T10:33:35;3.57;;;2.20;;
64894;SDS011;51588;53.702;10.208;2023-02-28T10:36:02;3.00;;;1.80;;
64894;SDS011;51588;53.702;10.208;2023-02-28T10:38:32;2.40;;;1.80;;
64894;SDS011;51588;53.702;10.208;2023-02-28T10:41:04;4.40;;;2.00;;
64894;SDS011;51588;53.702;10.208;2023-02-28T10:43:31;3.53;;;1.70;;
64894;SDS011;51588;53.702;10.208;2023-02-28T10:45:59;1.90;;;1.73;;
64894;SDS011;51588;53.702;10.208;2023-02-28T10:48:27;2.97;;;1.67;;
64894;SDS011;51588;53.702;10.208;2023-02-28T10:51:01;1.90;;;1.50;;
64894;SDS011;51588;53.702;10.208;2023-02-28T10:56:16;2.20;;;1.60;;
64894;SDS011;51588;53.702;10.208;2023-02-28T10:58:50;2.00;;;1.70;;
64894;SDS011;51588;53.702;10.208;2023-02-28T11:01:17;2.20;;;1.80;;
64894;SDS011;51588;53.702;10.208;2023-02-28T11:03:44;3.60;;;1.80;;
64894;SDS011;51588;53.702;10.208;2023-02-28T11:06:13;3.97;;;1.70;;
64894;SDS011;51588;53.702;10.208;2023-02-28T11:08:53;2.10;;;1.57;;
64894;SDS011;51588;53.702;10.208;2023-02-28T11:11:22;2.43;;;1.90;;
64894;SDS011;51588;53.702;10.208;2023-02-28T11:13:51;2.27;;;1.53;;
64894;SDS011;51588;53.702;10.208;2023-02-28T11:16:21;1.90;;;1.40;;
64894;SDS011;51588;53.702;10.208;2023-02-28T11:18:49;3.13;;;1.40;;
64894;SDS011;51588;53.702;10.208;2023-02-28T11:21:20;2.33;;;1.50;;
64894;SDS011;51588;53.702;10.208;2023-02-28T11:23:47;1.80;;;1.50;;
64894;SDS011;51588;53.702;10.208;2023-02-28T11:29:08;2.30;;;1.30;;
64894;SDS011;51588;53.702;10.208;2023-02-28T11:31:36;2.90;;;1.40;;
64894;SDS011;51588;53.702;10.208;2023-02-28T11:34:23;2.20;;;1.47;;
64894;SDS011;51588;53.702;10.208;2023-02-28T11:36:49;2.00;;;1.50;;
64894;SDS011;51588;53.702;10.208;2023-02-28T11:39:17;2.20;;;1.60;;
64894;SDS011;51588;53.702;10.208;2023-02-28T11:41:49;1.63;;;1.30;;
64894;SDS011;51588;53.702;10.208;2023-02-28T11:44:22;2.17;;;1.30;;
64894;SDS011;51588;53.702;10.208;2023-02-28T11:46:52;2.40;;;1.40;;
64894;SDS011;51588;53.702;10.208;2023-02-28T11:49:23;2.93;;;1.60;;
64894;SDS011;51588;53.702;10.208;2023-02-28T11:51:57;2.00;;;1.30;;
64894;SDS011;51588;53.702;10.208;2023-02-28T11:54:30;1.70;;;1.20;;
64894;SDS011;51588;53.702;10.208;2023-02-28T11:57:03;1.67;;;1.20;;
64894;SDS011;51588;53.702;10.208;2023-02-28T11:59:38;2.73;;;1.40;;
64894;SDS011;51588;53.702;10.208;2023-02-28T12:02:22;2.30;;;1.50;;
64894;SDS011;51588;53.702;10.208;2023-02-28T12:05:01;1.90;;;1.30;;
64894;SDS011;51588;53.702;10.208;2023-02-28T12:07:34;2.90;;;1.37;;
64894;SDS011;51588;53.702;10.208;2023-02-28T12:10:04;1.63;;;1.20;;
64894;SDS011;51588;53.702;10.208;2023-02-28T12:12:38;1.37;;;1.27;;
64894;SDS011;51588;53.702;10.208;2023-02-28T12:17:58;5.43;;;1.73;;
64894;SDS011;51588;53.702;10.208;2023-02-28T12:20:30;152.93;;;92.83;;
64894;SDS011;51588;53.702;10.208;2023-02-28T12:23:15;135.33;;;71.40;;
64894;SDS011;51588;53.702;10.208;2023-02-28T12:28:28;78.37;;;40.33;;
64894;SDS011;51588;53.702;10.208;2023-02-28T12:31:04;88.37;;;39.73;;
64894;SDS011;51588;53.702;10.208;2023-02-28T12:33:34;69.13;;;36.40;;
64894;SDS011;51588;53.702;10.208;2023-02-28T12:36:03;83.30;;;37.27;;
64894;SDS011;51588;53.702;10.208;2023-02-28T12:38:34;72.77;;;32.97;;
64894;SDS011;51588;53.702;10.208;2023-02-28T12:41:02;66.73;;;33.80;;
64894;SDS011;51588;53.702;10.208;2023-02-28T12:43:33;57.10;;;29.63;;
64894;SDS011;51588;53.702;10.208;2023-02-28T12:46:07;49.03;;;28.53;;
64894;SDS011;51588;53.702;10.208;2023-02-28T12:48:39;51.90;;;24.93;;
64894;SDS011;51588;53.702;10.208;2023-02-28T12:51:06;54.90;;;25.17;;
64894;SDS011;51588;53.702;10.208;2023-02-28T12:53:35;41.90;;;22.20;;
64894;SDS011;51588;53.702;10.208;2023-02-28T12:56:15;40.60;;;20.80;;
64894;SDS011;51588;53.702;10.208;2023-02-28T12:58:43;36.73;;;18.40;;
64894;SDS011;51588;53.702;10.208;2023-02-28T13:06:49;29.10;;;16.20;;
64894;SDS011;51588;53.702;10.208;2023-02-28T13:09:19;28.27;;;15.90;;
64894;SDS011;51588;53.702;10.208;2023-02-28T13:11:46;23.73;;;12.90;;
64894;SDS011;51588;53.702;10.208;2023-02-28T13:14:18;25.07;;;13.53;;
64894;SDS011;51588;53.702;10.208;2023-02-28T13:16:54;26.07;;;12.50;;
64894;SDS011;51588;53.702;10.208;2023-02-28T13:19:22;21.97;;;11.20;;
64894;SDS011;51588;53.702;10.208;2023-02-28T13:21:53;23.90;;;10.60;;
64894;SDS011;51588;53.702;10.208;2023-02-28T13:24:40;20.90;;;10.27;;
64894;SDS011;51588;53.702;10.208;2023-02-28T13:29:59;17.43;;;8.70;;
64894;SDS011;51588;53.702;10.208;2023-02-28T13:32:32;15.60;;;8.97;;
64894;SDS011;51588;53.702;10.208;2023-02-28T13:35:12;13.80;;;8.23;;
64894;SDS011;51588;53.702;10.208;2023-02-28T13:37:43;15.27;;;7.40;;
64894;SDS011;51588;53.702;10.208;2023-02-28T13:42:51;14.93;;;7.70;;
64894;SDS011;51588;53.702;10.208;2023-02-28T13:45:28;15.40;;;7.10;;
64894;SDS011;51588;53.702;10.208;2023-02-28T13:48:02;12.27;;;5.90;;
64894;SDS011;51588;53.702;10.208;2023-02-28T13:50:32;13.70;;;6.37;;
64894;SDS011;51588;53.702;10.208;2023-02-28T13:53:24;11.47;;;6.63;;
64894;SDS011;51588;53.702;10.208;2023-02-28T13:55:53;10.60;;;6.07;;
64894;SDS011;51588;53.702;10.208;2023-02-28T13:58:34;11.23;;;5.83;;
64894;SDS011;51588;53.702;10.208;2023-02-28T14:01:21;8.90;;;5.13;;
64894;SDS011;51588;53.702;10.208;2023-02-28T14:04:03;12.97;;;5.60;;
64894;SDS011;51588;53.702;10.208;2023-02-28T14:06:33;10.53;;;5.03;;
64894;SDS011;51588;53.702;10.208;2023-02-28T14:09:02;8.20;;;4.93;;
64894;SDS011;51588;53.702;10.208;2023-02-28T14:11:33;8.60;;;4.80;;
64894;SDS011;51588;53.702;10.208;2023-02-28T14:14:00;10.40;;;5.50;;
64894;SDS011;51588;53.702;10.208;2023-02-28T14:16:27;7.00;;;4.20;;
64894;SDS011;51588;53.702;10.208;2023-02-28T14:19:01;10.97;;;4.13;;
64894;SDS011;51588;53.702;10.208;2023-02-28T14:21:34;7.30;;;4.00;;
64894;SDS011;51588;53.702;10.208;2023-02-28T14:26:55;7.30;;;4.50;;
64894;SDS011;51588;53.702;10.208;2023-02-28T14:29:30;7.30;;;4.00;;
64894;SDS011;51588;53.702;10.208;2023-02-28T14:32:03;6.03;;;3.77;;
64894;SDS011;51588;53.702;10.208;2023-02-28T14:34:35;8.90;;;4.17;;
64894;SDS011;51588;53.702;10.208;2023-02-28T14:37:03;4.97;;;3.40;;
64894;SDS011;51588;53.702;10.208;2023-02-28T14:39:32;8.47;;;3.73;;
64894;SDS011;51588;53.702;10.208;2023-02-28T14:44:53;6.57;;;3.67;;
64894;SDS011;51588;53.702;10.208;2023-02-28T14:47:27;5.43;;;3.73;;
64894;SDS011;51588;53.702;10.208;2023-02-28T14:49:54;6.50;;;3.93;;
64894;SDS011;51588;53.702;10.208;2023-02-28T14:52:21;5.27;;;3.30;;
64894;SDS011;51588;53.702;10.208;2023-02-28T14:54:51;5.77;;;3.80;;
64894;SDS011;51588;53.702;10.208;2023-02-28T14:57:22;4.47;;;3.13;;
64894;SDS011;51588;53.702;10.208;2023-02-28T14:59:57;3.80;;;3.20;;
64894;SDS011;51588;53.702;10.208;2023-02-28T15:02:25;3.77;;;3.10;;
64894;SDS011;51588;53.702;10.208;2023-02-28T15:05:10;5.10;;;3.27;;
64894;SDS011;51588;53.702;10.208;2023-02-28T15:07:42;6.23;;;3.27;;
64894;SDS011;51588;53.702;10.208;2023-02-28T15:10:10;4.93;;;3.30;;
64894;SDS011;51588;53.702;10.208;2023-02-28T15:12:49;4.43;;;2.97;;
64894;SDS011;51588;53.702;10.208;2023-02-28T15:15:18;5.70;;;3.60;;
64894;SDS011;51588;53.702;10.208;2023-02-28T15:17:49;3.90;;;2.80;;